Time;durP1;ratioP1;P1;durP2;ratioP2;P2;SDS_P1;SDS_P2;PMS_P1;PMS_P2;Temp;Humidity;BMP_temperature;BMP_pressure;BME280_temperature;BME280_humidity;BME280_pressure;Samples;Min_cycle;Max_cycle;Signal;HPM_P1;HPM_P2
2023/06/08 00:01:02;;;;;;;7.22;5.07;;;16.80;97.10;;;;;;5046013;28;20021;-43
2023/06/08 00:03:27;;;;;;;7.43;3.90;;;16.70;97.10;;;;;;5045156;28;20036;-43
2023/06/08 00:06:03;;;;;;;7.85;4.47;;;16.70;97.20;;;;;;5043903;28;20396;-44
2023/06/08 00:08:32;;;;;;;8.55;5.03;;;16.70;97.20;;;;;;5044766;28;20051;-43
2023/06/08 00:10:57;;;;;;;8.32;4.72;;;16.60;97.30;;;;;;5035326;28;20029;-42
2023/06/08 00:13:23;;;;;;;8.73;4.78;;;16.50;97.40;;;;;;5044865;28;20082;-44
2023/06/08 00:15:49;;;;;;;11.18;5.43;;;16.40;97.50;;;;;;5041523;28;20400;-43
2023/06/08 00:18:15;;;;;;;10.82;5.30;;;16.40;97.70;;;;;;5045106;28;20045;-42
2023/06/08 00:20:44;;;;;;;6.82;4.40;;;16.40;97.80;;;;;;5044261;28;20059;-42
2023/06/08 00:23:09;;;;;;;11.00;4.90;;;16.40;97.90;;;;;;5045336;28;20035;-42
2023/06/08 00:25:35;;;;;;;8.30;5.60;;;16.50;97.90;;;;;;5037892;28;20021;-43
2023/06/08 00:28:00;;;;;;;10.88;5.20;;;16.50;98.00;;;;;;5044699;28;20040;-42
2023/06/08 00:30:26;;;;;;;10.07;5.00;;;16.40;98.00;;;;;;5044359;28;20530;-42
2023/06/08 00:32:52;;;;;;;11.27;5.03;;;16.40;98.10;;;;;;5044846;28;20025;-43
2023/06/08 00:35:17;;;;;;;6.93;4.75;;;16.40;98.20;;;;;;5039495;28;20017;-43
2023/06/08 00:37:43;;;;;;;8.25;4.40;;;16.40;98.30;;;;;;5041116;28;20110;-43
2023/06/08 00:40:09;;;;;;;6.03;4.07;;;16.40;98.30;;;;;;5044039;28;20031;-43
2023/06/08 00:42:35;;;;;;;8.63;5.07;;;16.30;98.30;;;;;;5044587;28;20039;-43
2023/06/08 00:45:00;;;;;;;7.20;4.60;;;16.40;98.40;;;;;;5044958;28;20017;-43
2023/06/08 00:47:26;;;;;;;10.20;5.22;;;16.30;98.40;;;;;;5038676;28;20116;-43
2023/06/08 00:49:52;;;;;;;8.20;4.75;;;16.20;98.60;;;;;;5045102;28;20044;-43
2023/06/08 00:52:20;;;;;;;7.43;4.60;;;16.10;98.70;;;;;;5044414;28;20048;-43
2023/06/08 00:54:50;;;;;;;9.32;5.05;;;16.10;98.80;;;;;;5044106;28;20013;-42
2023/06/08 00:57:18;;;;;;;7.28;4.70;;;16.10;98.90;;;;;;5036363;28;20135;-43
2023/06/08 00:59:49;;;;;;;7.25;4.38;;;16.00;99.00;;;;;;5043697;28;20057;-43
2023/06/08 01:02:16;;;;;;;7.05;4.68;;;16.00;99.00;;;;;;5040705;28;20147;-42
2023/06/08 01:04:41;;;;;;;9.15;4.65;;;15.90;99.10;;;;;;5044574;28;20029;-43
2023/06/08 01:07:14;;;;;;;6.93;4.63;;;15.90;99.20;;;;;;5042987;28;20104;-43
2023/06/08 01:10:02;;;;;;;8.10;5.43;;;15.90;99.40;;;;;;5043382;28;20519;-43
2023/06/08 01:12:45;;;;;;;10.18;5.47;;;15.70;99.60;;;;;;5043062;28;20112;-43
2023/06/08 01:15:26;;;;;;;7.88;4.82;;;15.70;99.70;;;;;;5027257;28;20032;-42
2023/06/08 01:17:57;;;;;;;11.73;5.28;;;15.70;99.80;;;;;;5042073;28;20047;-43
2023/06/08 01:20:49;;;;;;;9.40;5.35;;;15.70;99.80;;;;;;5041982;28;20029;-42
2023/06/08 01:23:52;;;;;;;9.13;5.45;;;15.70;99.90;;;;;;5042791;28;20037;-43
2023/06/08 01:26:20;;;;;;;9.18;4.40;;;15.60;99.90;;;;;;5044177;28;20227;-42
2023/06/08 01:28:49;;;;;;;8.38;5.35;;;15.60;99.90;;;;;;5044234;28;20029;-42
2023/06/08 01:31:15;;;;;;;11.55;5.78;;;15.40;99.90;;;;;;5042972;28;20423;-43
2023/06/08 01:33:42;;;;;;;11.40;5.22;;;15.30;99.90;;;;;;5043848;28;20070;-43
2023/06/08 01:36:16;;;;;;;9.50;4.95;;;15.30;99.90;;;;;;5042935;28;20040;-43
2023/06/08 01:39:14;;;;;;;8.65;5.25;;;15.30;99.90;;;;;;5041444;28;20040;-42
2023/06/08 01:41:43;;;;;;;7.88;5.25;;;15.30;99.90;;;;;;5042437;28;20033;-43
2023/06/08 01:44:11;;;;;;;11.13;5.30;;;15.30;99.90;;;;;;5043699;28;20127;-43
2023/06/08 01:46:36;;;;;;;9.30;5.10;;;15.30;99.90;;;;;;5042053;28;20082;-43
2023/06/08 01:49:04;;;;;;;6.95;4.47;;;15.30;99.90;;;;;;5043125;28;20864;-42
2023/06/08 01:51:32;;;;;;;8.60;4.88;;;15.30;99.90;;;;;;5024865;28;20060;-43
2023/06/08 01:54:06;;;;;;;9.60;5.25;;;15.30;99.90;;;;;;5040228;28;20136;-42
2023/06/08 01:56:33;;;;;;;10.00;5.15;;;15.30;99.90;;;;;;5043056;28;20409;-42
2023/06/08 01:58:59;;;;;;;8.52;5.10;;;15.20;99.90;;;;;;5043306;28;20068;-43
2023/06/08 02:01:25;;;;;;;10.43;5.72;;;15.20;99.90;;;;;;5024391;28;20072;-43
2023/06/08 02:03:50;;;;;;;8.18;4.82;;;15.20;99.90;;;;;;5041872;28;20029;-42
2023/06/08 02:06:16;;;;;;;6.70;4.90;;;15.30;99.90;;;;;;5038122;28;20071;-42
2023/06/08 02:08:42;;;;;;;8.40;6.05;;;15.30;99.90;;;;;;5043568;28;20361;-43
2023/06/08 02:11:09;;;;;;;10.38;5.65;;;15.30;99.90;;;;;;5027722;28;20052;-43
2023/06/08 02:13:39;;;;;;;9.60;5.47;;;15.30;99.90;;;;;;5034406;28;20134;-43
2023/06/08 02:16:05;;;;;;;10.25;6.13;;;15.20;99.90;;;;;;5043836;28;20048;-42
2023/06/08 02:18:30;;;;;;;11.60;6.18;;;15.20;99.90;;;;;;5041847;28;20060;-43
2023/06/08 02:20:56;;;;;;;12.63;6.07;;;15.20;99.90;;;;;;5030239;28;20116;-43
2023/06/08 02:23:21;;;;;;;9.95;5.93;;;15.20;99.90;;;;;;5031837;28;20476;-42
2023/06/08 02:25:50;;;;;;;11.20;6.15;;;15.10;99.90;;;;;;5042092;28;20024;-43
2023/06/08 02:28:18;;;;;;;10.02;5.90;;;15.00;99.90;;;;;;5043154;28;20036;-44
2023/06/08 02:30:44;;;;;;;13.02;6.47;;;14.90;99.90;;;;;;5042132;28;20032;-42
2023/06/08 02:33:09;;;;;;;11.65;6.20;;;14.90;99.90;;;;;;5042008;28;20025;-42
2023/06/08 02:35:37;;;;;;;7.95;5.03;;;14.80;99.90;;;;;;5042662;28;20028;-44
2023/06/08 02:38:02;;;;;;;9.73;5.55;;;14.80;99.90;;;;;;5043728;28;20037;-42
2023/06/08 02:40:28;;;;;;;10.07;5.43;;;14.70;99.90;;;;;;5040371;28;20430;-43
2023/06/08 02:42:53;;;;;;;9.20;5.93;;;14.80;99.90;;;;;;5043165;28;20506;-43
2023/06/08 02:45:19;;;;;;;9.13;5.28;;;14.80;99.90;;;;;;5043029;28;20029;-43
2023/06/08 02:47:48;;;;;;;8.07;5.43;;;14.80;99.90;;;;;;5043402;28;20036;-43
2023/06/08 02:50:17;;;;;;;10.30;5.90;;;14.80;99.90;;;;;;5043526;28;20053;-43
2023/06/08 02:52:42;;;;;;;8.80;5.65;;;14.80;99.90;;;;;;5047099;28;20053;-44
2023/06/08 02:55:08;;;;;;;13.23;6.20;;;14.80;99.90;;;;;;5046620;28;20024;-42
2023/06/08 02:57:34;;;;;;;8.60;5.10;;;14.70;99.90;;;;;;5046771;28;20044;-41
2023/06/08 02:59:59;;;;;;;7.95;5.18;;;14.70;99.90;;;;;;5045621;28;20111;-44
2023/06/08 03:02:27;;;;;;;8.07;5.28;;;14.70;99.90;;;;;;5045708;28;20056;-43
2023/06/08 03:04:53;;;;;;;8.50;4.93;;;14.70;99.90;;;;;;5046481;28;20056;-42
2023/06/08 03:07:19;;;;;;;7.63;5.53;;;14.70;99.90;;;;;;5046490;28;20075;-43
2023/06/08 03:09:44;;;;;;;12.05;5.30;;;14.60;99.90;;;;;;5045225;28;20089;-43
2023/06/08 03:12:12;;;;;;;12.60;6.82;;;14.60;99.90;;;;;;5046779;28;20070;-43
2023/06/08 03:14:40;;;;;;;9.27;5.55;;;14.60;99.90;;;;;;5045022;28;20037;-43
2023/06/08 03:17:06;;;;;;;9.50;5.93;;;14.60;99.90;;;;;;5046525;28;20102;-43
2023/06/08 03:19:32;;;;;;;9.32;6.28;;;14.60;99.90;;;;;;5045970;28;20032;-42
2023/06/08 03:22:04;;;;;;;9.32;5.82;;;14.50;99.90;;;;;;5045523;28;20028;-43
2023/06/08 03:24:31;;;;;;;8.35;5.70;;;14.50;99.90;;;;;;5046152;28;20033;-43
2023/06/08 03:26:58;;;;;;;7.55;5.20;;;14.50;99.90;;;;;;5045924;28;20447;-43
2023/06/08 03:29:24;;;;;;;8.48;5.75;;;14.50;99.90;;;;;;5044744;28;20123;-43
2023/06/08 03:31:50;;;;;;;8.82;5.50;;;14.40;99.90;;;;;;5044113;28;20457;-43
2023/06/08 03:34:16;;;;;;;7.22;5.82;;;14.40;99.90;;;;;;5044984;28;20043;-43
2023/06/08 03:36:43;;;;;;;7.60;5.72;;;14.30;99.90;;;;;;5045005;28;20481;-42
2023/06/08 03:39:09;;;;;;;10.40;6.25;;;14.30;99.90;;;;;;5046964;28;20058;-43
2023/06/08 03:41:34;;;;;;;10.98;7.07;;;14.30;99.90;;;;;;5044790;28;20024;-42
2023/06/08 03:44:00;;;;;;;11.02;6.38;;;14.20;99.90;;;;;;5045348;28;20021;-43
2023/06/08 03:46:25;;;;;;;12.00;7.03;;;14.20;99.90;;;;;;5045448;28;20025;-43
2023/06/08 03:48:51;;;;;;;11.48;6.82;;;14.20;99.90;;;;;;5045672;28;20086;-42
2023/06/08 03:51:20;;;;;;;10.68;6.60;;;14.20;99.90;;;;;;5044013;28;20036;-43
2023/06/08 03:53:46;;;;;;;7.78;5.50;;;14.10;99.90;;;;;;5045425;28;20591;-43
2023/06/08 03:56:12;;;;;;;12.15;6.93;;;14.10;99.90;;;;;;5046252;28;20038;-43
2023/06/08 03:58:38;;;;;;;11.30;7.10;;;14.10;99.90;;;;;;5043989;28;20772;-42
2023/06/08 04:01:04;;;;;;;12.15;7.88;;;14.00;99.90;;;;;;5041169;28;20484;-43
2023/06/08 04:03:30;;;;;;;11.23;7.18;;;14.00;99.90;;;;;;5045055;28;20052;-43
2023/06/08 04:05:56;;;;;;;12.20;7.43;;;13.90;99.90;;;;;;5045111;28;20040;-43
2023/06/08 04:08:22;;;;;;;8.00;7.00;;;13.90;99.90;;;;;;5045374;28;20025;-43
2023/06/08 04:10:48;;;;;;;10.80;7.40;;;13.90;99.90;;;;;;5044412;28;20029;-43
2023/06/08 04:13:14;;;;;;;9.73;7.07;;;13.90;99.90;;;;;;5045138;28;20032;-44
2023/06/08 04:15:39;;;;;;;9.23;6.30;;;13.90;99.90;;;;;;5044424;28;20029;-42
2023/06/08 04:18:05;;;;;;;8.60;6.88;;;13.90;99.90;;;;;;5044805;28;20037;-43
2023/06/08 04:20:32;;;;;;;10.70;7.15;;;13.90;99.90;;;;;;5044293;28;20033;-43
2023/06/08 04:22:58;;;;;;;10.85;7.38;;;13.90;99.90;;;;;;5039730;28;20620;-43
2023/06/08 04:25:25;;;;;;;11.02;6.80;;;13.90;99.90;;;;;;5044008;28;20488;-42
2023/06/08 04:27:52;;;;;;;12.93;8.10;;;14.00;99.90;;;;;;5045643;28;20033;-42
2023/06/08 04:30:18;;;;;;;17.02;8.95;;;14.00;99.90;;;;;;5045496;28;20110;-42
2023/06/08 04:32:43;;;;;;;9.75;7.55;;;14.00;99.90;;;;;;5036771;28;20037;-42
2023/06/08 04:35:09;;;;;;;10.43;7.47;;;13.90;99.90;;;;;;5045674;28;20204;-43
2023/06/08 04:37:35;;;;;;;10.52;7.35;;;13.90;99.90;;;;;;5044840;28;20037;-42
2023/06/08 04:40:01;;;;;;;10.88;7.57;;;13.90;99.90;;;;;;5042656;28;20025;-43
2023/06/08 04:42:39;;;;;;;8.55;6.63;;;13.90;99.90;;;;;;5028993;28;20028;-43
2023/06/08 04:45:08;;;;;;;8.50;7.00;;;13.90;99.90;;;;;;5042007;28;20044;-42
2023/06/08 04:47:35;;;;;;;7.80;6.03;;;13.90;99.90;;;;;;5042422;28;20021;-43
2023/06/08 04:50:02;;;;;;;10.40;7.10;;;14.00;99.90;;;;;;5044885;28;20088;-41
2023/06/08 04:52:27;;;;;;;11.35;7.50;;;14.00;99.90;;;;;;5044689;28;20029;-43
2023/06/08 04:54:53;;;;;;;11.38;8.10;;;14.00;99.90;;;;;;5043420;28;20426;-43
2023/06/08 04:57:22;;;;;;;9.18;7.18;;;14.00;99.90;;;;;;5045007;28;20740;-42
2023/06/08 04:59:48;;;;;;;11.57;6.80;;;14.10;99.90;;;;;;5038540;28;20036;-42
2023/06/08 05:02:14;;;;;;;9.82;8.00;;;14.10;99.90;;;;;;5044047;28;20025;-42
2023/06/08 05:04:39;;;;;;;14.23;8.70;;;14.10;99.90;;;;;;5035525;28;20068;-43
2023/06/08 05:07:05;;;;;;;9.15;7.63;;;14.00;99.90;;;;;;5043703;28;20132;-42
2023/06/08 05:09:31;;;;;;;9.30;8.10;;;14.00;99.90;;;;;;5043670;28;20035;-42
2023/06/08 05:11:56;;;;;;;10.75;7.82;;;14.10;99.90;;;;;;5043683;28;20025;-43
2023/06/08 05:14:25;;;;;;;12.95;8.95;;;14.10;99.90;;;;;;5037218;28;20022;-43
2023/06/08 05:16:50;;;;;;;10.65;7.75;;;14.10;99.90;;;;;;5037899;28;20041;-43
2023/06/08 05:19:16;;;;;;;9.40;7.38;;;14.00;99.90;;;;;;5043629;28;20085;-42
2023/06/08 05:21:41;;;;;;;11.23;8.63;;;14.10;99.90;;;;;;5042964;28;20670;-42
2023/06/08 05:24:08;;;;;;;14.25;8.80;;;14.10;99.90;;;;;;5043996;28;20021;-42
2023/06/08 05:26:33;;;;;;;14.02;8.27;;;14.10;99.90;;;;;;5041845;28;20552;-43
2023/06/08 05:28:59;;;;;;;12.20;8.30;;;14.20;99.90;;;;;;5043585;28;20083;-42
2023/06/08 05:31:26;;;;;;;10.43;6.95;;;14.20;99.90;;;;;;5041323;28;20373;-42
2023/06/08 05:33:52;;;;;;;10.20;7.90;;;14.20;99.90;;;;;;5031940;28;20030;-43
2023/06/08 05:36:17;;;;;;;9.15;7.03;;;14.30;99.90;;;;;;5041992;28;20025;-42
2023/06/08 05:38:43;;;;;;;8.43;6.90;;;14.40;99.90;;;;;;5030334;28;20238;-43
2023/06/08 05:41:08;;;;;;;11.20;6.95;;;14.50;99.90;;;;;;5041498;28;20080;-43
2023/06/08 05:43:34;;;;;;;13.32;7.07;;;14.50;99.90;;;;;;5042944;28;20036;-43
2023/06/08 05:46:02;;;;;;;9.40;6.55;;;14.60;99.90;;;;;;5041176;28;20037;-43
2023/06/08 05:48:28;;;;;;;9.45;6.22;;;14.60;99.90;;;;;;5043022;28;20040;-42
2023/06/08 05:50:53;;;;;;;8.38;6.55;;;14.70;99.90;;;;;;5042225;28;20017;-43
2023/06/08 05:53:19;;;;;;;7.63;6.40;;;14.80;99.90;;;;;;5039071;28;20908;-43
2023/06/08 05:55:45;;;;;;;10.18;6.75;;;14.90;99.90;;;;;;5033898;28;20060;-43
2023/06/08 05:58:11;;;;;;;12.05;7.20;;;14.90;99.90;;;;;;5042885;28;20037;-42
2023/06/08 06:00:38;;;;;;;11.40;7.53;;;15.00;99.90;;;;;;5042451;28;20048;-43
2023/06/08 06:03:03;;;;;;;10.82;6.97;;;15.00;99.90;;;;;;5041564;28;20021;-42
2023/06/08 06:05:29;;;;;;;6.93;6.18;;;15.00;99.90;;;;;;5028028;28;20120;-43
2023/06/08 06:07:58;;;;;;;11.32;7.40;;;15.00;99.90;;;;;;5043619;28;20032;-43
2023/06/08 06:10:23;;;;;;;10.82;7.85;;;15.00;99.90;;;;;;5041347;28;20075;-44
2023/06/08 06:12:49;;;;;;;11.45;7.38;;;15.00;99.90;;;;;;5041652;28;20133;-43
2023/06/08 06:15:14;;;;;;;8.98;6.97;;;15.00;99.90;;;;;;5031637;28;20113;-43
2023/06/08 06:17:40;;;;;;;8.60;6.22;;;15.10;99.90;;;;;;5042038;28;20487;-44
2023/06/08 06:20:06;;;;;;;8.15;5.93;;;15.10;99.90;;;;;;5042495;28;20049;-44
2023/06/08 06:22:32;;;;;;;8.93;5.97;;;15.20;99.90;;;;;;5040395;28;20441;-43
2023/06/08 06:24:57;;;;;;;9.45;6.38;;;15.20;99.90;;;;;;5043066;28;20492;-42
2023/06/08 06:27:23;;;;;;;10.55;7.93;;;15.30;99.90;;;;;;5042788;28;20048;-43
2023/06/08 06:29:49;;;;;;;9.23;6.80;;;15.30;99.90;;;;;;5042052;28;20548;-43
2023/06/08 06:32:14;;;;;;;9.20;6.10;;;15.30;99.90;;;;;;5036548;28;20025;-43
2023/06/08 06:34:43;;;;;;;8.15;6.60;;;15.30;99.90;;;;;;5039314;28;20063;-43
2023/06/08 06:37:09;;;;;;;7.30;5.85;;;15.40;99.90;;;;;;5043023;28;20033;-42
2023/06/08 06:39:35;;;;;;;7.80;5.68;;;15.50;99.90;;;;;;5040856;28;20481;-43
2023/06/08 06:42:00;;;;;;;7.28;5.53;;;15.60;99.90;;;;;;5043177;28;20434;-43
2023/06/08 06:44:26;;;;;;;7.55;6.03;;;15.70;99.90;;;;;;5042921;28;20057;-44
2023/06/08 06:46:52;;;;;;;9.80;6.18;;;15.80;99.90;;;;;;5037822;28;20068;-42
2023/06/08 06:49:17;;;;;;;9.48;6.15;;;15.90;99.90;;;;;;5036862;28;20525;-42
2023/06/08 06:51:43;;;;;;;9.43;6.15;;;15.90;99.90;;;;;;5032723;28;20116;-43
2023/06/08 06:54:09;;;;;;;7.50;5.97;;;16.00;99.90;;;;;;5039784;28;20144;-43
2023/06/08 06:56:34;;;;;;;8.82;6.53;;;16.10;99.90;;;;;;5023347;28;20404;-42
2023/06/08 06:59:00;;;;;;;8.85;6.45;;;16.20;99.90;;;;;;5041813;28;20040;-43
2023/06/08 07:01:26;;;;;;;8.60;6.15;;;16.20;99.90;;;;;;5034845;28;20017;-43
2023/06/08 07:03:52;;;;;;;8.45;6.05;;;16.30;99.90;;;;;;5031943;28;20033;-42
2023/06/08 07:06:21;;;;;;;9.70;6.55;;;16.40;99.90;;;;;;5042222;28;20035;-43
2023/06/08 07:08:47;;;;;;;10.02;5.85;;;16.40;99.90;;;;;;5041532;28;20044;-43
2023/06/08 07:11:12;;;;;;;10.60;6.85;;;16.50;99.90;;;;;;5041977;28;20025;-44
2023/06/08 07:13:38;;;;;;;9.75;6.13;;;16.60;99.90;;;;;;5036909;28;20029;-43
2023/06/08 07:16:04;;;;;;;10.10;6.68;;;16.60;99.90;;;;;;5039752;28;20033;-43
2023/06/08 07:18:30;;;;;;;9.68;6.45;;;16.60;99.90;;;;;;5041895;28;20037;-41
2023/06/08 07:20:56;;;;;;;9.38;6.30;;;16.70;99.90;;;;;;5041698;28;20020;-43
2023/06/08 07:23:22;;;;;;;10.00;5.43;;;16.80;99.90;;;;;;5041337;28;20842;-43
2023/06/08 07:25:47;;;;;;;7.68;5.05;;;16.90;99.90;;;;;;5042727;28;20044;-42
2023/06/08 07:28:13;;;;;;;8.77;5.60;;;17.00;99.90;;;;;;5041999;28;20031;-43
2023/06/08 07:30:38;;;;;;;7.35;5.78;;;17.10;99.90;;;;;;5041236;28;20021;-43
2023/06/08 07:33:04;;;;;;;9.13;6.45;;;17.10;99.90;;;;;;5042797;28;20033;-43
2023/06/08 07:35:29;;;;;;;8.82;5.68;;;17.20;99.90;;;;;;5040573;28;20020;-44
2023/06/08 07:37:55;;;;;;;10.00;6.18;;;17.20;99.90;;;;;;5026850;28;20041;-43
2023/06/08 07:40:21;;;;;;;8.68;5.90;;;17.20;99.90;;;;;;5045890;28;20384;-43
2023/06/08 07:42:47;;;;;;;7.70;5.32;;;17.20;99.90;;;;;;5045508;28;20028;-43
2023/06/08 07:45:13;;;;;;;8.65;5.75;;;17.30;99.90;;;;;;5042648;28;20025;-43
2023/06/08 07:47:39;;;;;;;6.85;5.10;;;17.30;99.90;;;;;;5046065;28;20033;-42
2023/06/08 07:50:06;;;;;;;8.32;5.55;;;17.40;99.90;;;;;;5043417;28;20440;-42
2023/06/08 07:52:32;;;;;;;11.00;6.40;;;17.40;99.90;;;;;;5041589;28;20053;-43
2023/06/08 07:54:58;;;;;;;6.95;5.20;;;17.40;99.90;;;;;;5044411;28;20039;-42
2023/06/08 07:57:23;;;;;;;9.25;7.13;;;17.40;99.90;;;;;;5044900;28;20029;-44
2023/06/08 07:59:49;;;;;;;7.20;6.20;;;17.40;99.90;;;;;;5045648;28;20120;-42
2023/06/08 08:02:15;;;;;;;7.00;5.78;;;17.40;99.90;;;;;;5046183;28;20047;-43
2023/06/08 08:04:40;;;;;;;10.27;6.40;;;17.50;99.90;;;;;;5042755;28;20404;-44
2023/06/08 08:07:06;;;;;;;9.95;6.13;;;17.50;99.90;;;;;;5043742;28;20029;-43
2023/06/08 08:09:32;;;;;;;8.40;5.32;;;17.60;99.90;;;;;;5044913;28;20040;-43
2023/06/08 08:11:58;;;;;;;10.80;5.70;;;17.60;99.90;;;;;;5044999;28;20017;-42
2023/06/08 08:14:23;;;;;;;7.93;5.45;;;17.70;99.90;;;;;;5044262;28;20044;-43
2023/06/08 08:16:50;;;;;;;7.82;5.22;;;17.90;99.90;;;;;;5045033;28;20017;-43
2023/06/08 08:19:16;;;;;;;7.68;5.28;;;18.00;99.90;;;;;;5045029;28;20072;-42
2023/06/08 08:21:41;;;;;;;7.30;5.28;;;18.10;99.90;;;;;;5044972;28;20469;-43
2023/06/08 08:24:07;;;;;;;6.57;5.13;;;18.10;99.90;;;;;;5044418;28;20021;-44
2023/06/08 08:26:43;;;;;;;6.07;4.50;;;18.20;99.90;;;;;;5043153;28;20029;-43
2023/06/08 08:29:08;;;;;;;6.97;4.53;;;18.30;99.90;;;;;;5042247;28;20025;-44
2023/06/08 08:31:34;;;;;;;9.48;5.72;;;18.50;99.90;;;;;;5040655;28;20025;-43
2023/06/08 08:33:59;;;;;;;5.72;5.13;;;18.50;99.90;;;;;;5045202;28;20068;-43
2023/06/08 08:36:25;;;;;;;7.47;5.55;;;18.60;99.90;;;;;;5042956;28;20021;-43
2023/06/08 08:38:51;;;;;;;6.75;5.40;;;18.60;99.70;;;;;;5044140;28;20037;-43
2023/06/08 08:41:20;;;;;;;8.05;5.72;;;18.60;99.60;;;;;;5044018;28;20484;-44
2023/06/08 08:43:54;;;;;;;6.80;4.78;;;18.60;99.60;;;;;;5045180;28;20124;-43
2023/06/08 08:46:23;;;;;;;7.20;5.38;;;18.70;99.70;;;;;;5042507;28;20154;-44
2023/06/08 08:49:00;;;;;;;6.93;4.68;;;18.70;99.60;;;;;;5043523;28;20457;-42
2023/06/08 08:51:29;;;;;;;4.90;4.20;;;18.70;99.50;;;;;;5044984;28;20020;-44
2023/06/08 08:53:57;;;;;;;6.85;5.68;;;18.80;99.50;;;;;;5044162;28;20048;-42
2023/06/08 08:56:30;;;;;;;8.23;5.55;;;18.80;99.30;;;;;;5045085;28;20025;-44
2023/06/08 08:58:56;;;;;;;8.80;4.85;;;18.80;99.40;;;;;;5044664;28;20814;-43
2023/06/08 09:01:23;;;;;;;7.60;5.03;;;18.80;99.30;;;;;;5043846;28;20140;-43
2023/06/08 09:03:49;;;;;;;5.95;4.75;;;18.90;99.30;;;;;;5043490;28;20108;-43
2023/06/08 09:06:14;;;;;;;5.97;4.75;;;19.00;99.20;;;;;;5043686;28;20021;-43
2023/06/08 09:08:40;;;;;;;5.38;4.35;;;19.00;99.20;;;;;;5037687;28;20037;-43
2023/06/08 09:11:09;;;;;;;5.88;4.57;;;19.00;99.20;;;;;;5042722;28;20029;-43
2023/06/08 09:13:35;;;;;;;6.38;4.38;;;19.10;99.10;;;;;;5040825;28;20052;-42
2023/06/08 09:16:38;;;;;;;7.40;5.00;;;19.10;99.00;;;;;;5040840;28;20071;-43
2023/06/08 09:19:05;;;;;;;;;;;19.00;98.80;;;;;;5045371;28;20042;-43
2023/06/08 09:21:32;;;;;;;5.32;4.80;;;19.00;98.70;;;;;;5043752;28;19913;-43
2023/06/08 09:24:16;;;;;;;7.15;5.00;;;18.90;98.70;;;;;;5044514;28;20473;-44
2023/06/08 09:26:55;;;;;;;9.38;4.75;;;18.90;98.60;;;;;;5044364;28;20031;-43
2023/06/08 09:29:39;;;;;;;10.05;5.25;;;18.90;98.70;;;;;;5041604;28;20025;-44
2023/06/08 09:32:12;;;;;;;8.18;4.90;;;19.00;98.60;;;;;;5043933;28;20033;-44
2023/06/08 09:35:01;;;;;;;8.48;4.60;;;19.10;98.40;;;;;;5042834;28;20332;-44
2023/06/08 09:37:32;;;;;;;6.65;4.32;;;19.30;98.30;;;;;;5043853;28;20033;-43
2023/06/08 09:39:59;;;;;;;7.60;4.82;;;19.50;98.20;;;;;;5033113;28;20024;-44
2023/06/08 09:42:43;;;;;;;9.35;4.97;;;19.50;97.90;;;;;;5043187;28;20048;-43
2023/06/08 09:45:13;;;;;;;10.07;4.25;;;19.50;97.80;;;;;;5033481;28;20781;-43
2023/06/08 09:47:40;;;;;;;8.35;4.18;;;19.60;97.90;;;;;;5043458;28;20046;-44
2023/06/08 09:50:07;;;;;;;6.53;4.50;;;19.60;98.00;;;;;;5043507;28;20028;-42
2023/06/08 09:52:34;;;;;;;11.40;4.30;;;19.50;97.90;;;;;;5043616;28;20049;-43
2023/06/08 09:55:00;;;;;;;9.45;5.40;;;19.50;97.80;;;;;;5040154;28;20028;-44
2023/06/08 09:57:28;;;;;;;7.05;5.05;;;19.50;97.70;;;;;;5042126;28;20043;-43
2023/06/08 09:59:59;;;;;;;8.00;4.68;;;19.40;97.60;;;;;;5043782;28;20025;-43
2023/06/08 10:02:34;;;;;;;6.07;4.55;;;19.40;97.60;;;;;;5043079;28;20037;-43
2023/06/08 10:05:08;;;;;;;6.90;4.40;;;19.50;97.80;;;;;;5043302;28;20052;-43
2023/06/08 10:07:35;;;;;;;5.32;4.22;;;19.50;97.80;;;;;;5044126;28;20071;-42
2023/06/08 10:10:13;;;;;;;6.32;4.25;;;19.50;97.80;;;;;;5042898;28;20021;-43
2023/06/08 10:12:39;;;;;;;4.63;3.70;;;19.60;97.80;;;;;;5043587;28;20086;-43
2023/06/08 10:15:05;;;;;;;7.95;4.10;;;19.70;97.60;;;;;;5043840;28;20056;-44
2023/06/08 10:17:33;;;;;;;7.20;4.72;;;19.80;97.50;;;;;;5028235;28;20044;-43
2023/06/08 10:20:01;;;;;;;7.38;4.63;;;19.90;97.40;;;;;;5043579;28;20072;-44
2023/06/08 10:22:27;;;;;;;7.28;4.78;;;20.00;97.30;;;;;;5043274;28;20103;-43
2023/06/08 10:24:53;;;;;;;6.75;4.50;;;20.00;97.20;;;;;;5043227;28;20024;-44
2023/06/08 10:27:22;;;;;;;6.78;4.30;;;20.10;97.20;;;;;;5043433;28;20027;-42
2023/06/08 10:29:55;;;;;;;6.63;3.90;;;20.20;97.10;;;;;;5043250;28;20028;-44
2023/06/08 10:32:32;;;;;;;6.55;4.15;;;20.30;97.10;;;;;;5042639;28;20029;-43
2023/06/08 10:35:07;;;;;;;6.32;3.92;;;20.40;97.10;;;;;;5042939;28;20021;-44
2023/06/08 10:37:35;;;;;;;6.80;4.05;;;20.50;97.10;;;;;;5043044;28;20032;-42
2023/06/08 10:40:08;;;;;;;5.78;3.80;;;20.60;97.00;;;;;;5042419;28;20109;-45
2023/06/08 10:42:33;;;;;;;;;;;20.80;97.00;;;;;;5043132;28;20025;-43
2023/06/08 10:45:00;;;;;;;6.32;3.75;;;20.90;96.80;;;;;;5042340;28;20461;-43
2023/06/08 10:47:26;;;;;;;5.18;3.63;;;21.10;96.70;;;;;;5042338;28;20060;-43
2023/06/08 10:50:03;;;;;;;5.47;4.00;;;21.20;96.60;;;;;;5042956;28;20021;-43
2023/06/08 10:52:29;;;;;;;5.82;3.92;;;21.30;96.60;;;;;;5031980;28;20417;-43
2023/06/08 10:55:08;;;;;;;5.15;3.60;;;21.30;96.40;;;;;;5042732;28;20033;-43
2023/06/08 10:57:36;;;;;;;6.50;4.32;;;21.40;96.20;;;;;;5031648;28;20045;-43
2023/06/08 11:00:32;;;;;;;4.50;3.72;;;21.50;96.00;;;;;;5042142;28;20555;-44
2023/06/08 11:03:04;;;;;;;7.57;3.80;;;21.60;96.00;;;;;;5033865;28;20025;-44
2023/06/08 11:05:38;;;;;;;4.30;3.30;;;21.60;96.00;;;;;;5042277;28;20029;-44
2023/06/08 11:08:06;;;;;;;5.82;3.63;;;21.60;95.80;;;;;;5042149;28;20424;-44
2023/06/08 11:10:32;;;;;;;5.63;3.80;;;21.60;95.70;;;;;;5046441;28;20484;-44
2023/06/08 11:13:08;;;;;;;5.60;3.88;;;21.70;95.60;;;;;;5046181;28;20021;-44
2023/06/08 11:15:42;;;;;;;4.90;3.90;;;21.70;95.60;;;;;;5046698;28;20098;-44
2023/06/08 11:18:10;;;;;;;6.15;3.97;;;21.80;95.50;;;;;;5046894;28;20040;-43
2023/06/08 11:20:38;;;;;;;4.72;3.70;;;21.80;95.30;;;;;;5046528;28;20025;-43
2023/06/08 11:23:09;;;;;;;4.93;3.65;;;21.90;95.20;;;;;;5046837;28;20036;-44
2023/06/08 11:25:35;;;;;;;4.93;3.67;;;21.90;95.00;;;;;;5046401;28;20025;-43
2023/06/08 11:28:01;;;;;;;4.13;3.05;;;22.00;95.00;;;;;;5045760;28;20860;-43
2023/06/08 11:30:28;;;;;;;5.93;3.63;;;22.10;94.90;;;;;;5045896;28;20044;-44
2023/06/08 11:32:56;;;;;;;3.75;3.03;;;22.10;94.80;;;;;;5046761;28;20021;-43
2023/06/08 11:35:22;;;;;;;5.22;3.72;;;22.10;94.70;;;;;;5045278;28;20033;-44
2023/06/08 11:37:49;;;;;;;5.25;3.40;;;22.20;94.60;;;;;;5045829;28;20102;-47
2023/06/08 11:40:16;;;;;;;4.75;3.53;;;22.20;94.40;;;;;;5046437;28;20108;-44
2023/06/08 11:42:42;;;;;;;5.43;3.90;;;22.30;94.40;;;;;;5045727;28;20033;-43
2023/06/08 11:45:09;;;;;;;5.55;3.65;;;22.40;94.00;;;;;;5046241;28;20025;-42
2023/06/08 11:47:36;;;;;;;4.93;3.67;;;22.40;93.80;;;;;;5045726;28;20040;-43
2023/06/08 11:50:03;;;;;;;4.70;3.47;;;22.50;93.90;;;;;;5045938;28;20043;-43
2023/06/08 11:52:33;;;;;;;4.35;3.55;;;22.50;93.80;;;;;;5045652;28;20037;-43
2023/06/08 11:55:04;;;;;;;4.82;3.15;;;22.50;93.80;;;;;;5046266;28;20017;-43
2023/06/08 11:57:57;;;;;;;4.47;3.40;;;22.60;93.90;;;;;;5046177;28;20447;-44
2023/06/08 12:00:27;;;;;;;7.85;4.10;;;22.60;93.80;;;;;;5045261;28;20033;-44
2023/06/08 12:02:55;;;;;;;5.38;3.25;;;22.70;93.50;;;;;;5045261;28;20060;-44
2023/06/08 12:05:25;;;;;;;5.55;3.90;;;22.70;93.30;;;;;;5045793;28;20465;-43
2023/06/08 12:08:08;;;;;;;4.35;3.60;;;22.80;93.20;;;;;;5046094;28;20056;-43
2023/06/08 12:10:39;;;;;;;4.32;3.28;;;22.80;93.10;;;;;;5044708;28;20087;-44
2023/06/08 12:13:08;;;;;;;6.00;3.33;;;22.90;93.20;;;;;;5045823;28;20025;-44
2023/06/08 12:15:41;;;;;;;3.55;3.15;;;23.00;93.20;;;;;;5045703;28;20028;-43
2023/06/08 12:18:09;;;;;;;5.75;3.08;;;23.00;93.20;;;;;;5044489;28;20116;-42
2023/06/08 12:20:35;;;;;;;4.18;3.15;;;23.00;93.20;;;;;;5044714;28;20472;-43
2023/06/08 12:23:01;;;;;;;6.03;3.95;;;23.10;93.50;;;;;;5045426;28;20067;-44
2023/06/08 12:25:27;;;;;;;7.72;4.00;;;23.10;93.00;;;;;;5044670;28;20025;-44
2023/06/08 12:27:54;;;;;;;5.50;3.45;;;23.20;92.90;;;;;;5045151;28;20032;-43
2023/06/08 12:30:20;;;;;;;5.35;3.03;;;23.20;92.80;;;;;;5044858;28;20022;-44
2023/06/08 12:32:45;;;;;;;4.03;3.25;;;23.30;92.90;;;;;;5045418;28;20040;-43
2023/06/08 12:35:11;;;;;;;5.32;3.20;;;23.30;92.90;;;;;;5045371;28;20633;-43
2023/06/08 12:37:36;;;;;;;3.80;2.92;;;23.30;92.70;;;;;;5044313;28;20037;-43
2023/06/08 12:40:04;;;;;;;4.82;3.55;;;23.40;92.50;;;;;;5045248;28;20048;-43
2023/06/08 12:42:31;;;;;;;3.78;3.00;;;23.40;92.40;;;;;;5044487;28;20090;-42
2023/06/08 12:44:57;;;;;;;4.53;3.33;;;23.50;92.40;;;;;;5044217;28;20033;-43
2023/06/08 12:47:22;;;;;;;5.63;3.15;;;23.50;92.30;;;;;;5044481;28;20036;-42
2023/06/08 12:49:48;;;;;;;4.32;3.53;;;23.50;92.20;;;;;;5045201;28;20048;-43